sensor_id;sensor_type;location;lat;lon;timestamp;pressure;altitude;pressure_sealevel;temperature;humidity
28428;BME280;15662;49.128;8.520;2023-04-26T00:00:44;100606.66;;;13.29;52.47
28428;BME280;15662;49.128;8.520;2023-04-26T00:03:12;100604.13;;;13.26;52.42
28428;BME280;15662;49.128;8.520;2023-04-26T00:05:41;100601.63;;;13.20;52.31
28428;BME280;15662;49.128;8.520;2023-04-26T00:08:09;100604.31;;;13.18;52.42
28428;BME280;15662;49.128;8.520;2023-04-26T00:10:37;100602.66;;;13.16;52.30
28428;BME280;15662;49.128;8.520;2023-04-26T00:13:07;100604.53;;;13.12;52.28
28428;BME280;15662;49.128;8.520;2023-04-26T00:15:35;100601.16;;;13.07;52.33
28428;BME280;15662;49.128;8.520;2023-04-26T00:18:03;100605.66;;;13.05;52.07
28428;BME280;15662;49.128;8.520;2023-04-26T00:20:31;100611.16;;;12.99;52.37
28428;BME280;15662;49.128;8.520;2023-04-26T00:22:58;100616.53;;;12.98;52.08
28428;BME280;15662;49.128;8.520;2023-04-26T00:25:26;100606.97;;;12.92;52.02
28428;BME280;15662;49.128;8.520;2023-04-26T00:27:54;100602.75;;;12.85;52.11
28428;BME280;15662;49.128;8.520;2023-04-26T00:30:22;100603.81;;;12.79;52.05
28428;BME280;15662;49.128;8.520;2023-04-26T00:32:50;100602.06;;;12.78;52.09
28428;BME280;15662;49.128;8.520;2023-04-26T00:35:18;100608.34;;;12.76;52.15
28428;BME280;15662;49.128;8.520;2023-04-26T00:37:46;100587.31;;;12.68;51.85
28428;BME280;15662;49.128;8.520;2023-04-26T00:40:14;100591.66;;;12.71;52.01
28428;BME280;15662;49.128;8.520;2023-04-26T00:42:43;100591.78;;;12.68;52.08
28428;BME280;15662;49.128;8.520;2023-04-26T00:45:11;100595.34;;;12.67;52.20
28428;BME280;15662;49.128;8.520;2023-04-26T00:47:39;100595.50;;;12.62;52.22
28428;BME280;15662;49.128;8.520;2023-04-26T00:50:07;100600.69;;;12.65;52.50
28428;BME280;15662;49.128;8.520;2023-04-26T00:52:37;100597.22;;;12.63;52.34
28428;BME280;15662;49.128;8.520;2023-04-26T00:55:06;100601.69;;;12.62;52.41
28428;BME280;15662;49.128;8.520;2023-04-26T00:57:33;100600.84;;;12.60;52.40
28428;BME280;15662;49.128;8.520;2023-04-26T01:00:01;100599.94;;;12.61;52.63
28428;BME280;15662;49.128;8.520;2023-04-26T01:02:29;100599.97;;;12.60;52.54
28428;BME280;15662;49.128;8.520;2023-04-26T01:04:57;100597.44;;;12.57;52.31
28428;BME280;15662;49.128;8.520;2023-04-26T01:07:25;100600.09;;;12.55;52.37
28428;BME280;15662;49.128;8.520;2023-04-26T01:09:54;100595.97;;;12.47;52.13
28428;BME280;15662;49.128;8.520;2023-04-26T01:12:23;100600.50;;;12.43;52.07
28428;BME280;15662;49.128;8.520;2023-04-26T01:14:52;100598.91;;;12.36;52.12
28428;BME280;15662;49.128;8.520;2023-04-26T01:17:22;100600.88;;;12.29;52.04
28428;BME280;15662;49.128;8.520;2023-04-26T01:19:51;100600.22;;;12.23;52.06
28428;BME280;15662;49.128;8.520;2023-04-26T01:22:19;100592.44;;;12.15;51.98
28428;BME280;15662;49.128;8.520;2023-04-26T01:24:50;100589.72;;;12.17;51.86
28428;BME280;15662;49.128;8.520;2023-04-26T01:27:18;100586.44;;;12.08;51.97
28428;BME280;15662;49.128;8.520;2023-04-26T01:29:47;100576.88;;;12.01;51.75
28428;BME280;15662;49.128;8.520;2023-04-26T01:32:15;100583.13;;;12.00;51.98
28428;BME280;15662;49.128;8.520;2023-04-26T01:34:43;100588.53;;;11.97;52.03
28428;BME280;15662;49.128;8.520;2023-04-26T01:37:10;100582.47;;;11.92;52.16
28428;BME280;15662;49.128;8.520;2023-04-26T01:39:38;100590.56;;;11.87;52.00
28428;BME280;15662;49.128;8.520;2023-04-26T01:42:06;100576.53;;;11.81;51.81
28428;BME280;15662;49.128;8.520;2023-04-26T01:44:34;100586.47;;;11.74;52.10
28428;BME280;15662;49.128;8.520;2023-04-26T01:47:01;100584.00;;;11.68;51.98
28428;BME280;15662;49.128;8.520;2023-04-26T01:49:29;100592.88;;;11.66;51.99
28428;BME280;15662;49.128;8.520;2023-04-26T01:51:58;100594.84;;;11.59;51.97
28428;BME280;15662;49.128;8.520;2023-04-26T01:54:26;100583.53;;;11.51;51.84
28428;BME280;15662;49.128;8.520;2023-04-26T01:56:54;100596.00;;;11.49;51.90
28428;BME280;15662;49.128;8.520;2023-04-26T01:59:21;100587.41;;;11.39;51.62
28428;BME280;15662;49.128;8.520;2023-04-26T02:01:49;100598.03;;;11.37;51.59
28428;BME280;15662;49.128;8.520;2023-04-26T02:04:17;100595.53;;;11.33;51.65
28428;BME280;15662;49.128;8.520;2023-04-26T02:06:45;100586.00;;;11.24;51.47
28428;BME280;15662;49.128;8.520;2023-04-26T02:09:13;100593.00;;;11.27;51.51
28428;BME280;15662;49.128;8.520;2023-04-26T02:11:41;100597.53;;;11.23;51.43
28428;BME280;15662;49.128;8.520;2023-04-26T02:14:08;100592.34;;;11.19;51.61
28428;BME280;15662;49.128;8.520;2023-04-26T02:16:38;100595.00;;;11.19;51.46
28428;BME280;15662;49.128;8.520;2023-04-26T02:19:07;100604.75;;;11.18;51.63
28428;BME280;15662;49.128;8.520;2023-04-26T02:21:57;100601.13;;;11.21;51.88
28428;BME280;15662;49.128;8.520;2023-04-26T02:24:25;100594.13;;;11.17;51.68
28428;BME280;15662;49.128;8.520;2023-04-26T02:26:53;100597.72;;;11.16;51.69
28428;BME280;15662;49.128;8.520;2023-04-26T02:29:21;100591.53;;;11.15;51.47
28428;BME280;15662;49.128;8.520;2023-04-26T02:32:09;100589.91;;;11.09;51.51
28428;BME280;15662;49.128;8.520;2023-04-26T02:34:37;100602.31;;;11.09;51.40
28428;BME280;15662;49.128;8.520;2023-04-26T02:37:05;100606.81;;;11.05;51.42
28428;BME280;15662;49.128;8.520;2023-04-26T02:39:34;100589.31;;;10.97;51.41
28428;BME280;15662;49.128;8.520;2023-04-26T02:42:02;100592.88;;;10.96;51.36
28428;BME280;15662;49.128;8.520;2023-04-26T02:44:30;100599.00;;;10.98;51.32
28428;BME280;15662;49.128;8.520;2023-04-26T02:46:58;100597.47;;;10.89;51.42
28428;BME280;15662;49.128;8.520;2023-04-26T02:49:26;100595.75;;;10.87;51.48
28428;BME280;15662;49.128;8.520;2023-04-26T02:51:53;100596.78;;;10.81;51.39
28428;BME280;15662;49.128;8.520;2023-04-26T02:54:21;100607.53;;;10.75;51.43
28428;BME280;15662;49.128;8.520;2023-04-26T02:56:49;100596.25;;;10.64;51.45
28428;BME280;15662;49.128;8.520;2023-04-26T02:59:17;100602.56;;;10.59;51.54
28428;BME280;15662;49.128;8.520;2023-04-26T03:01:44;100607.09;;;10.54;51.45
28428;BME280;15662;49.128;8.520;2023-04-26T03:04:12;100611.59;;;10.51;51.30
28428;BME280;15662;49.128;8.520;2023-04-26T03:06:40;100599.34;;;10.44;51.50
28428;BME280;15662;49.128;8.520;2023-04-26T03:09:08;100608.16;;;10.46;51.37
28428;BME280;15662;49.128;8.520;2023-04-26T03:11:36;100606.41;;;10.45;51.36
28428;BME280;15662;49.128;8.520;2023-04-26T03:14:03;100600.31;;;10.41;51.27
28428;BME280;15662;49.128;8.520;2023-04-26T03:16:40;100613.38;;;10.50;51.04
28428;BME280;15662;49.128;8.520;2023-04-26T03:19:09;100606.34;;;10.48;51.30
28428;BME280;15662;49.128;8.520;2023-04-26T03:21:38;100603.66;;;10.49;51.28
28428;BME280;15662;49.128;8.520;2023-04-26T03:24:06;100598.47;;;10.43;51.27
28428;BME280;15662;49.128;8.520;2023-04-26T03:26:34;100597.53;;;10.47;51.10
28428;BME280;15662;49.128;8.520;2023-04-26T03:29:02;100608.13;;;10.47;51.07
28428;BME280;15662;49.128;8.520;2023-04-26T03:31:30;100604.63;;;10.45;50.90
28428;BME280;15662;49.128;8.520;2023-04-26T03:33:59;100603.81;;;10.42;51.00
28428;BME280;15662;49.128;8.520;2023-04-26T03:36:33;100607.47;;;10.36;51.02
28428;BME280;15662;49.128;8.520;2023-04-26T03:39:06;100610.22;;;10.31;50.98
28428;BME280;15662;49.128;8.520;2023-04-26T03:41:35;100615.66;;;10.25;51.19
28428;BME280;15662;49.128;8.520;2023-04-26T03:44:07;100613.03;;;10.22;51.19
28428;BME280;15662;49.128;8.520;2023-04-26T03:46:35;100608.69;;;10.20;51.28
28428;BME280;15662;49.128;8.520;2023-04-26T03:49:03;100616.63;;;10.20;51.32
28428;BME280;15662;49.128;8.520;2023-04-26T03:51:31;100613.97;;;10.18;51.48
28428;BME280;15662;49.128;8.520;2023-04-26T03:53:59;100608.78;;;10.14;51.18
28428;BME280;15662;49.128;8.520;2023-04-26T03:56:27;100611.41;;;10.15;51.28
28428;BME280;15662;49.128;8.520;2023-04-26T03:58:54;100611.44;;;10.14;51.37
28428;BME280;15662;49.128;8.520;2023-04-26T04:01:24;100597.50;;;10.04;51.41
28428;BME280;15662;49.128;8.520;2023-04-26T04:03:52;100609.94;;;10.00;51.41
28428;BME280;15662;49.128;8.520;2023-04-26T04:06:20;100608.38;;;9.90;51.71
28428;BME280;15662;49.128;8.520;2023-04-26T04:08:49;100604.13;;;9.80;51.92
28428;BME280;15662;49.128;8.520;2023-04-26T04:11:17;100593.72;;;9.72;52.23
28428;BME280;15662;49.128;8.520;2023-04-26T04:13:45;100606.97;;;9.69;51.96
28428;BME280;15662;49.128;8.520;2023-04-26T04:16:13;100610.69;;;9.61;52.15
28428;BME280;15662;49.128;8.520;2023-04-26T04:18:41;100607.25;;;9.54;52.53
28428;BME280;15662;49.128;8.520;2023-04-26T04:21:09;100603.06;;;9.42;52.48
28428;BME280;15662;49.128;8.520;2023-04-26T04:23:37;100619.88;;;9.38;52.29
28428;BME280;15662;49.128;8.520;2023-04-26T04:26:08;100616.50;;;9.30;52.76
28428;BME280;15662;49.128;8.520;2023-04-26T04:28:39;100622.69;;;9.29;52.49
28428;BME280;15662;49.128;8.520;2023-04-26T04:31:08;100605.25;;;9.16;52.74
28428;BME280;15662;49.128;8.520;2023-04-26T04:33:36;100620.97;;;9.25;52.90
28428;BME280;15662;49.128;8.520;2023-04-26T04:36:06;100611.28;;;9.25;52.28
28428;BME280;15662;49.128;8.520;2023-04-26T04:38:35;100628.94;;;9.23;52.52
28428;BME280;15662;49.128;8.520;2023-04-26T04:41:05;100618.34;;;9.26;52.63
28428;BME280;15662;49.128;8.520;2023-04-26T04:43:34;100620.84;;;9.34;52.83
28428;BME280;15662;49.128;8.520;2023-04-26T04:46:02;100626.88;;;9.41;52.79
28428;BME280;15662;49.128;8.520;2023-04-26T04:48:30;100639.13;;;9.48;52.77
28428;BME280;15662;49.128;8.520;2023-04-26T04:50:59;100625.94;;;9.45;53.21
28428;BME280;15662;49.128;8.520;2023-04-26T04:53:27;100638.09;;;9.56;52.94
28428;BME280;15662;49.128;8.520;2023-04-26T04:55:54;100639.69;;;9.65;53.10
28428;BME280;15662;49.128;8.520;2023-04-26T04:58:23;100634.34;;;9.68;53.09
28428;BME280;15662;49.128;8.520;2023-04-26T05:00:51;100645.75;;;9.73;53.36
28428;BME280;15662;49.128;8.520;2023-04-26T05:03:29;100648.41;;;9.72;53.41
28428;BME280;15662;49.128;8.520;2023-04-26T05:05:57;100644.88;;;9.73;53.33
28428;BME280;15662;49.128;8.520;2023-04-26T05:08:25;100637.94;;;9.66;53.59
28428;BME280;15662;49.128;8.520;2023-04-26T05:10:54;100650.31;;;9.64;53.66
28428;BME280;15662;49.128;8.520;2023-04-26T05:13:23;100652.13;;;9.60;53.82
28428;BME280;15662;49.128;8.520;2023-04-26T05:15:51;100638.25;;;9.47;53.80
28428;BME280;15662;49.128;8.520;2023-04-26T05:18:18;100657.66;;;9.48;53.61
28428;BME280;15662;49.128;8.520;2023-04-26T05:20:46;100666.44;;;9.50;53.74
28428;BME280;15662;49.128;8.520;2023-04-26T05:23:14;100667.28;;;9.52;53.60
28428;BME280;15662;49.128;8.520;2023-04-26T05:25:42;100660.06;;;9.60;53.96
28428;BME280;15662;49.128;8.520;2023-04-26T05:28:28;100660.91;;;9.64;53.89
28428;BME280;15662;49.128;8.520;2023-04-26T05:31:14;100664.25;;;9.73;53.57
28428;BME280;15662;49.128;8.520;2023-04-26T05:34:18;100658.09;;;9.73;53.57
28428;BME280;15662;49.128;8.520;2023-04-26T05:36:49;100666.63;;;9.89;53.74
28428;BME280;15662;49.128;8.520;2023-04-26T05:39:18;100651.66;;;9.88;53.64
28428;BME280;15662;49.128;8.520;2023-04-26T05:41:47;100664.66;;;10.01;53.75
28428;BME280;15662;49.128;8.520;2023-04-26T05:44:15;100665.34;;;10.09;53.79
28428;BME280;15662;49.128;8.520;2023-04-26T05:46:43;100664.44;;;10.12;53.61
28428;BME280;15662;49.128;8.520;2023-04-26T05:49:11;100666.19;;;10.13;53.76
28428;BME280;15662;49.128;8.520;2023-04-26T05:51:39;100663.50;;;10.16;54.07
28428;BME280;15662;49.128;8.520;2023-04-26T05:54:07;100668.66;;;10.25;54.06
28428;BME280;15662;49.128;8.520;2023-04-26T05:56:35;100679.97;;;10.32;54.38
28428;BME280;15662;49.128;8.520;2023-04-26T05:59:03;100658.00;;;10.27;54.35
28428;BME280;15662;49.128;8.520;2023-04-26T06:01:32;100678.94;;;10.39;54.36
28428;BME280;15662;49.128;8.520;2023-04-26T06:04:01;100688.53;;;10.46;54.50
28428;BME280;15662;49.128;8.520;2023-04-26T06:06:36;100682.28;;;10.49;54.17
28428;BME280;15662;49.128;8.520;2023-04-26T06:09:04;100690.91;;;10.58;54.50
28428;BME280;15662;49.128;8.520;2023-04-26T06:11:32;100689.03;;;10.65;54.54
28428;BME280;15662;49.128;8.520;2023-04-26T06:14:00;100689.63;;;10.78;54.48
28428;BME280;15662;49.128;8.520;2023-04-26T06:16:28;100699.16;;;10.87;54.63
28428;BME280;15662;49.128;8.520;2023-04-26T06:18:56;100691.06;;;10.94;54.64
28428;BME280;15662;49.128;8.520;2023-04-26T06:21:24;100698.69;;;11.08;54.64
28428;BME280;15662;49.128;8.520;2023-04-26T06:23:53;100701.03;;;11.22;54.65
28428;BME280;15662;49.128;8.520;2023-04-26T06:26:24;100705.22;;;11.32;55.08
28428;BME280;15662;49.128;8.520;2023-04-26T06:28:52;100690.91;;;11.37;55.73
28428;BME280;15662;49.128;8.520;2023-04-26T06:31:20;100689.69;;;11.52;56.50
28428;BME280;15662;49.128;8.520;2023-04-26T06:33:49;100689.44;;;11.63;56.90
28428;BME280;15662;49.128;8.520;2023-04-26T06:36:18;100687.25;;;11.79;57.29
28428;BME280;15662;49.128;8.520;2023-04-26T06:38:46;100685.22;;;11.90;57.52
28428;BME280;15662;49.128;8.520;2023-04-26T06:41:14;100694.47;;;12.09;57.29
28428;BME280;15662;49.128;8.520;2023-04-26T06:43:42;100699.41;;;12.23;57.45
28428;BME280;15662;49.128;8.520;2023-04-26T06:46:20;100691.88;;;12.39;57.86
28428;BME280;15662;49.128;8.520;2023-04-26T06:48:53;100688.72;;;12.56;57.89
28428;BME280;15662;49.128;8.520;2023-04-26T06:51:24;100680.47;;;12.65;57.59
28428;BME280;15662;49.128;8.520;2023-04-26T06:53:52;100682.66;;;12.82;57.46
28428;BME280;15662;49.128;8.520;2023-04-26T06:56:20;100691.25;;;12.90;57.04
28428;BME280;15662;49.128;8.520;2023-04-26T06:59:05;100686.41;;;13.04;56.63
28428;BME280;15662;49.128;8.520;2023-04-26T07:01:34;100682.72;;;13.08;56.67
28428;BME280;15662;49.128;8.520;2023-04-26T07:04:04;100687.69;;;13.21;56.48
28428;BME280;15662;49.128;8.520;2023-04-26T07:06:37;100681.31;;;13.26;56.23
28428;BME280;15662;49.128;8.520;2023-04-26T07:09:05;100681.06;;;13.34;56.20
28428;BME280;15662;49.128;8.520;2023-04-26T07:11:34;100686.78;;;13.50;56.01
28428;BME280;15662;49.128;8.520;2023-04-26T07:14:03;100680.16;;;13.61;55.86
28428;BME280;15662;49.128;8.520;2023-04-26T07:16:31;100669.00;;;13.77;55.63
28428;BME280;15662;49.128;8.520;2023-04-26T07:18:59;100656.28;;;13.85;55.40
28428;BME280;15662;49.128;8.520;2023-04-26T07:21:27;100671.03;;;13.95;54.76
28428;BME280;15662;49.128;8.520;2023-04-26T07:23:55;100670.03;;;13.98;54.21
28428;BME280;15662;49.128;8.520;2023-04-26T07:26:25;100664.47;;;14.05;53.68
28428;BME280;15662;49.128;8.520;2023-04-26T07:28:53;100669.50;;;14.13;53.31
28428;BME280;15662;49.128;8.520;2023-04-26T07:31:21;100665.63;;;14.22;52.85
28428;BME280;15662;49.128;8.520;2023-04-26T07:33:49;100660.94;;;14.28;52.31
28428;BME280;15662;49.128;8.520;2023-04-26T07:36:17;100660.78;;;14.33;52.05
28428;BME280;15662;49.128;8.520;2023-04-26T07:38:45;100665.78;;;14.42;52.02
28428;BME280;15662;49.128;8.520;2023-04-26T07:41:13;100667.28;;;14.51;51.92
28428;BME280;15662;49.128;8.520;2023-04-26T07:43:42;100663.50;;;14.56;51.54
28428;BME280;15662;49.128;8.520;2023-04-26T07:46:10;100667.00;;;14.58;51.13
28428;BME280;15662;49.128;8.520;2023-04-26T07:48:38;100669.44;;;14.64;50.97
28428;BME280;15662;49.128;8.520;2023-04-26T07:51:11;100667.41;;;14.71;50.59
28428;BME280;15662;49.128;8.520;2023-04-26T07:53:39;100672.63;;;14.74;50.54
28428;BME280;15662;49.128;8.520;2023-04-26T07:56:08;100675.75;;;14.85;50.38
28428;BME280;15662;49.128;8.520;2023-04-26T07:58:37;100671.03;;;14.92;49.94
28428;BME280;15662;49.128;8.520;2023-04-26T08:01:07;100663.84;;;14.70;50.62
28428;BME280;15662;49.128;8.520;2023-04-26T08:03:36;100667.63;;;14.88;50.38
28428;BME280;15662;49.128;8.520;2023-04-26T08:06:04;100674.34;;;14.99;50.00
28428;BME280;15662;49.128;8.520;2023-04-26T08:08:34;100664.41;;;15.02;49.59
28428;BME280;15662;49.128;8.520;2023-04-26T08:11:07;100662.56;;;15.04;49.26
28428;BME280;15662;49.128;8.520;2023-04-26T08:13:36;100661.56;;;15.07;49.13
28428;BME280;15662;49.128;8.520;2023-04-26T08:16:04;100668.31;;;15.15;48.84
28428;BME280;15662;49.128;8.520;2023-04-26T08:18:32;100663.81;;;15.17;48.01
28428;BME280;15662;49.128;8.520;2023-04-26T08:21:01;100668.91;;;15.23;48.16
28428;BME280;15662;49.128;8.520;2023-04-26T08:23:34;100670.34;;;15.32;47.98
28428;BME280;15662;49.128;8.520;2023-04-26T08:26:04;100656.16;;;15.30;47.79
28428;BME280;15662;49.128;8.520;2023-04-26T08:28:33;100660.38;;;15.36;47.59
28428;BME280;15662;49.128;8.520;2023-04-26T08:31:02;100667.16;;;15.44;47.23
28428;BME280;15662;49.128;8.520;2023-04-26T08:33:30;100673.06;;;15.53;47.16
28428;BME280;15662;49.128;8.520;2023-04-26T08:35:59;100659.31;;;15.62;47.29
28428;BME280;15662;49.128;8.520;2023-04-26T08:38:28;100658.34;;;15.64;46.96
28428;BME280;15662;49.128;8.520;2023-04-26T08:40:58;100662.50;;;15.71;46.50
28428;BME280;15662;49.128;8.520;2023-04-26T08:43:29;100658.63;;;15.79;46.30
28428;BME280;15662;49.128;8.520;2023-04-26T08:45:58;100667.19;;;15.87;45.88
28428;BME280;15662;49.128;8.520;2023-04-26T08:48:27;100658.91;;;15.93;45.85
28428;BME280;15662;49.128;8.520;2023-04-26T08:51:00;100655.19;;;15.97;45.60
28428;BME280;15662;49.128;8.520;2023-04-26T08:53:29;100656.72;;;16.03;45.03
28428;BME280;15662;49.128;8.520;2023-04-26T08:55:58;100652.91;;;16.08;45.12
28428;BME280;15662;49.128;8.520;2023-04-26T08:58:27;100650.88;;;16.13;44.88
28428;BME280;15662;49.128;8.520;2023-04-26T09:00:55;100636.53;;;16.16;44.91
28428;BME280;15662;49.128;8.520;2023-04-26T09:03:24;100639.78;;;16.22;44.64
28428;BME280;15662;49.128;8.520;2023-04-26T09:05:53;100635.16;;;16.26;44.20
28428;BME280;15662;49.128;8.520;2023-04-26T09:08:21;100638.50;;;16.31;44.62
28428;BME280;15662;49.128;8.520;2023-04-26T09:10:48;100641.69;;;16.39;44.21
28428;BME280;15662;49.128;8.520;2023-04-26T09:13:16;100637.94;;;16.43;44.13
28428;BME280;15662;49.128;8.520;2023-04-26T09:15:48;100635.91;;;16.48;43.25
28428;BME280;15662;49.128;8.520;2023-04-26T09:18:22;100648.31;;;16.51;43.18
28428;BME280;15662;49.128;8.520;2023-04-26T09:21:07;100636.78;;;16.49;42.99
28428;BME280;15662;49.128;8.520;2023-04-26T09:23:35;100636.56;;;16.54;43.52
28428;BME280;15662;49.128;8.520;2023-04-26T09:26:23;100628.91;;;16.65;43.56
28428;BME280;15662;49.128;8.520;2023-04-26T09:29:16;100630.28;;;16.75;42.61
28428;BME280;15662;49.128;8.520;2023-04-26T09:31:49;100622.88;;;16.80;42.80
28428;BME280;15662;49.128;8.520;2023-04-26T09:34:17;100627.09;;;16.86;42.93
28428;BME280;15662;49.128;8.520;2023-04-26T09:36:53;100623.03;;;16.96;42.30
28428;BME280;15662;49.128;8.520;2023-04-26T09:39:37;100629.66;;;17.06;42.04
28428;BME280;15662;49.128;8.520;2023-04-26T09:42:08;100623.38;;;17.07;42.38
28428;BME280;15662;49.128;8.520;2023-04-26T09:44:36;100620.59;;;17.09;41.76
28428;BME280;15662;49.128;8.520;2023-04-26T09:47:10;100626.59;;;17.14;41.32
28428;BME280;15662;49.128;8.520;2023-04-26T09:49:46;100622.28;;;17.11;40.80
28428;BME280;15662;49.128;8.520;2023-04-26T09:52:17;100632.13;;;17.11;40.71
28428;BME280;15662;49.128;8.520;2023-04-26T09:54:51;100630.00;;;17.17;40.68
28428;BME280;15662;49.128;8.520;2023-04-26T09:57:21;100625.59;;;17.16;40.79
28428;BME280;15662;49.128;8.520;2023-04-26T09:59:53;100617.34;;;17.21;40.25
28428;BME280;15662;49.128;8.520;2023-04-26T10:02:24;100621.75;;;17.22;40.69
28428;BME280;15662;49.128;8.520;2023-04-26T10:04:55;100627.59;;;17.30;40.28
28428;BME280;15662;49.128;8.520;2023-04-26T10:07:24;100625.88;;;17.29;40.72
28428;BME280;15662;49.128;8.520;2023-04-26T10:09:52;100629.44;;;17.47;40.47
28428;BME280;15662;49.128;8.520;2023-04-26T10:12:22;100622.59;;;17.59;40.20
28428;BME280;15662;49.128;8.520;2023-04-26T10:14:50;100616.69;;;17.69;40.00
28428;BME280;15662;49.128;8.520;2023-04-26T10:17:18;100618.59;;;17.85;39.89
28428;BME280;15662;49.128;8.520;2023-04-26T10:19:51;100598.50;;;17.93;39.27
28428;BME280;15662;49.128;8.520;2023-04-26T10:22:30;100602.34;;;18.05;38.98
28428;BME280;15662;49.128;8.520;2023-04-26T10:25:00;100593.09;;;18.11;39.17
28428;BME280;15662;49.128;8.520;2023-04-26T10:30:16;100600.53;;;18.39;38.35
28428;BME280;15662;49.128;8.520;2023-04-26T10:35:28;100600.03;;;18.64;37.95
28428;BME280;15662;49.128;8.520;2023-04-26T10:40:33;100598.09;;;18.83;37.22
28428;BME280;15662;49.128;8.520;2023-04-26T10:45:38;100591.66;;;18.86;36.85
28428;BME280;15662;49.128;8.520;2023-04-26T10:48:30;100587.69;;;18.93;36.25
28428;BME280;15662;49.128;8.520;2023-04-26T10:59:20;100575.28;;;19.06;34.60
28428;BME280;15662;49.128;8.520;2023-04-26T11:01:51;100563.78;;;19.04;35.32
28428;BME280;15662;49.128;8.520;2023-04-26T11:04:19;100571.72;;;19.05;34.97
28428;BME280;15662;49.128;8.520;2023-04-26T11:06:54;100569.84;;;19.07;34.77
28428;BME280;15662;49.128;8.520;2023-04-26T11:09:47;100570.88;;;19.05;34.38
28428;BME280;15662;49.128;8.520;2023-04-26T11:12:15;100556.22;;;18.95;34.97
28428;BME280;15662;49.128;8.520;2023-04-26T11:14:44;100553.97;;;19.03;34.74
28428;BME280;15662;49.128;8.520;2023-04-26T11:17:15;100541.16;;;19.08;34.50
28428;BME280;15662;49.128;8.520;2023-04-26T11:19:45;100542.88;;;19.09;33.75
28428;BME280;15662;49.128;8.520;2023-04-26T11:22:14;100543.41;;;19.00;33.67
28428;BME280;15662;49.128;8.520;2023-04-26T11:24:42;100530.25;;;18.95;33.43
28428;BME280;15662;49.128;8.520;2023-04-26T11:27:12;100532.16;;;18.93;32.97
28428;BME280;15662;49.128;8.520;2023-04-26T11:29:40;100535.22;;;18.87;33.22
28428;BME280;15662;49.128;8.520;2023-04-26T11:32:08;100530.75;;;18.86;33.00
28428;BME280;15662;49.128;8.520;2023-04-26T11:34:37;100524.53;;;18.86;32.61
28428;BME280;15662;49.128;8.520;2023-04-26T11:37:06;100526.63;;;18.80;32.53
28428;BME280;15662;49.128;8.520;2023-04-26T11:39:35;100509.75;;;18.78;32.50
28428;BME280;15662;49.128;8.520;2023-04-26T11:42:09;100504.47;;;18.77;32.44
28428;BME280;15662;49.128;8.520;2023-04-26T11:44:39;100508.63;;;18.83;32.71
28428;BME280;15662;49.128;8.520;2023-04-26T11:47:08;100500.47;;;18.84;33.00
28428;BME280;15662;49.128;8.520;2023-04-26T11:49:36;100498.81;;;18.97;32.87
28428;BME280;15662;49.128;8.520;2023-04-26T11:52:05;100511.09;;;19.01;33.10
28428;BME280;15662;49.128;8.520;2023-04-26T11:54:35;100522.78;;;19.16;33.14
28428;BME280;15662;49.128;8.520;2023-04-26T11:57:15;100514.25;;;19.24;32.53
28428;BME280;15662;49.128;8.520;2023-04-26T11:59:45;100515.97;;;19.25;32.67
28428;BME280;15662;49.128;8.520;2023-04-26T12:02:12;100508.69;;;19.27;32.97
28428;BME280;15662;49.128;8.520;2023-04-26T12:04:41;100502.09;;;19.32;32.64
28428;BME280;15662;49.128;8.520;2023-04-26T12:07:10;100502.09;;;19.32;32.12
28428;BME280;15662;49.128;8.520;2023-04-26T12:09:40;100507.09;;;19.39;32.04
28428;BME280;15662;49.128;8.520;2023-04-26T12:12:10;100512.28;;;19.42;32.52
28428;BME280;15662;49.128;8.520;2023-04-26T12:14:39;100500.09;;;19.50;32.29
28428;BME280;15662;49.128;8.520;2023-04-26T12:17:07;100508.72;;;19.55;32.42
28428;BME280;15662;49.128;8.520;2023-04-26T12:19:39;100504.88;;;19.61;32.46
28428;BME280;15662;49.128;8.520;2023-04-26T12:22:08;100499.63;;;19.58;32.14
28428;BME280;15662;49.128;8.520;2023-04-26T12:24:36;100500.66;;;19.55;32.22
28428;BME280;15662;49.128;8.520;2023-04-26T12:27:05;100502.44;;;19.56;32.11
28428;BME280;15662;49.128;8.520;2023-04-26T12:29:34;100500.50;;;19.58;32.17
28428;BME280;15662;49.128;8.520;2023-04-26T12:32:02;100499.50;;;19.61;31.84
28428;BME280;15662;49.128;8.520;2023-04-26T12:34:31;100488.88;;;19.58;32.07
28428;BME280;15662;49.128;8.520;2023-04-26T12:36:58;100498.03;;;19.70;31.87
28428;BME280;15662;49.128;8.520;2023-04-26T12:39:26;100489.97;;;19.70;31.89
28428;BME280;15662;49.128;8.520;2023-04-26T12:41:55;100492.66;;;19.70;31.52
28428;BME280;15662;49.128;8.520;2023-04-26T12:44:23;100492.88;;;19.67;31.87
28428;BME280;15662;49.128;8.520;2023-04-26T12:46:51;100494.50;;;19.69;31.82
28428;BME280;15662;49.128;8.520;2023-04-26T12:49:19;100488.06;;;19.72;31.73
28428;BME280;15662;49.128;8.520;2023-04-26T12:51:47;100493.53;;;19.70;31.38
28428;BME280;15662;49.128;8.520;2023-04-26T12:54:14;100500.38;;;19.76;31.85
28428;BME280;15662;49.128;8.520;2023-04-26T12:56:42;100508.75;;;19.86;31.71
28428;BME280;15662;49.128;8.520;2023-04-26T12:59:11;100499.88;;;19.98;31.50
28428;BME280;15662;49.128;8.520;2023-04-26T13:01:39;100494.03;;;20.05;31.27
28428;BME280;15662;49.128;8.520;2023-04-26T13:04:07;100492.00;;;20.09;31.38
28428;BME280;15662;49.128;8.520;2023-04-26T13:06:36;100492.66;;;20.13;31.24
28428;BME280;15662;49.128;8.520;2023-04-26T13:09:05;100487.97;;;20.16;31.25
28428;BME280;15662;49.128;8.520;2023-04-26T13:11:34;100485.16;;;20.18;31.25
28428;BME280;15662;49.128;8.520;2023-04-26T13:14:02;100495.47;;;20.25;31.14
28428;BME280;15662;49.128;8.520;2023-04-26T13:16:34;100484.13;;;20.20;30.91
28428;BME280;15662;49.128;8.520;2023-04-26T13:19:02;100492.28;;;20.19;31.06
28428;BME280;15662;49.128;8.520;2023-04-26T13:21:30;100489.81;;;20.16;30.85